createdAt,value
2018-02-25T00:01:27.666Z,8.70
2018-02-25T00:03:54.348Z,8.45
2018-02-25T00:06:21.111Z,12.20
2018-02-25T00:08:47.842Z,8.82
2018-02-25T00:11:14.545Z,9.20
2018-02-25T00:13:41.269Z,7.47
2018-02-25T00:16:08.027Z,8.50
2018-02-25T00:18:34.795Z,10.38
2018-02-25T00:21:01.510Z,11.88
2018-02-25T00:23:28.275Z,8.82
2018-02-25T00:25:54.992Z,8.77
2018-02-25T00:28:21.678Z,9.00
2018-02-25T00:30:48.370Z,11.40
2018-02-25T00:33:15.048Z,15.65
2018-02-25T00:35:41.789Z,8.40
2018-02-25T00:38:08.579Z,10.57
2018-02-25T00:40:35.257Z,7.43
2018-02-25T00:43:01.944Z,8.30
2018-02-25T00:45:28.634Z,9.32
2018-02-25T00:47:55.328Z,8.55
2018-02-25T00:50:22.006Z,9.18
2018-02-25T00:52:48.754Z,7.45
2018-02-25T00:55:15.438Z,7.65
2018-02-25T00:57:42.220Z,11.90
2018-02-25T01:00:08.957Z,9.10
2018-02-25T01:02:35.659Z,8.52
2018-02-25T01:05:02.388Z,9.15
2018-02-25T01:07:29.125Z,9.23
2018-02-25T01:09:55.842Z,9.32
2018-02-25T01:12:22.626Z,9.18
2018-02-25T01:14:49.372Z,10.00
2018-02-25T01:17:16.048Z,9.75
2018-02-25T01:19:42.792Z,9.10
2018-02-25T01:22:09.454Z,6.62
2018-02-25T01:24:36.279Z,8.57
2018-02-25T01:27:02.982Z,8.30
2018-02-25T01:29:29.691Z,11.02
2018-02-25T01:31:56.505Z,12.50
2018-02-25T01:34:23.219Z,9.70
2018-02-25T01:36:50.005Z,9.70
2018-02-25T01:39:16.673Z,11.23
2018-02-25T01:41:43.367Z,9.65
2018-02-25T01:44:10.118Z,8.98
2018-02-25T01:46:36.828Z,10.88
2018-02-25T01:49:03.532Z,10.80
2018-02-25T01:51:30.262Z,7.30
2018-02-25T01:53:56.976Z,10.85
2018-02-25T01:56:23.701Z,8.70
2018-02-25T01:58:50.408Z,9.88
2018-02-25T02:01:17.141Z,11.52
2018-02-25T02:03:43.995Z,10.93
2018-02-25T02:06:10.702Z,9.55
2018-02-25T02:08:37.418Z,8.50
2018-02-25T02:11:04.463Z,8.90
2018-02-25T02:13:31.174Z,9.77
2018-02-25T02:15:57.889Z,11.75
2018-02-25T02:18:24.578Z,7.95
2018-02-25T02:20:51.314Z,13.10
2018-02-25T02:23:18.474Z,8.10
2018-02-25T02:25:45.310Z,10.27
2018-02-25T02:28:12.009Z,11.32
2018-02-25T02:30:38.749Z,10.50
2018-02-25T02:33:05.401Z,8.20
2018-02-25T02:35:32.172Z,10.73
2018-02-25T02:37:58.854Z,11.75
2018-02-25T02:40:25.582Z,10.38
2018-02-25T02:42:52.270Z,11.45
2018-02-25T02:45:18.983Z,17.83
2018-02-25T02:47:45.679Z,9.95
2018-02-25T02:50:12.452Z,9.23
2018-02-25T02:52:39.160Z,10.95
2018-02-25T02:55:05.871Z,14.20
2018-02-25T02:57:32.717Z,9.65
2018-02-25T02:59:59.441Z,10.40
2018-02-25T03:02:26.462Z,13.00
2018-02-25T03:04:53.168Z,9.52
2018-02-25T03:07:20.243Z,9.68
2018-02-25T03:09:46.986Z,13.77
2018-02-25T03:12:13.774Z,8.93
2018-02-25T03:14:40.470Z,10.57
2018-02-25T03:17:07.174Z,11.68
2018-02-25T03:19:34.009Z,14.98
2018-02-25T03:22:00.742Z,12.37
2018-02-25T03:24:27.616Z,11.98
2018-02-25T03:26:54.448Z,15.68
2018-02-25T03:29:21.122Z,11.05
2018-02-25T03:31:47.870Z,13.68
2018-02-25T03:34:14.578Z,16.00
2018-02-25T03:36:41.310Z,12.15
2018-02-25T03:39:08.012Z,13.50
2018-02-25T03:41:34.836Z,12.45
2018-02-25T03:44:01.553Z,12.65
2018-02-25T03:46:28.354Z,14.02
2018-02-25T03:48:55.221Z,14.30
2018-02-25T03:51:21.918Z,12.45
2018-02-25T03:53:48.643Z,10.18
2018-02-25T03:56:15.487Z,13.55
2018-02-25T03:58:42.234Z,13.10
2018-02-25T04:01:08.946Z,10.75
2018-02-25T04:03:35.717Z,13.50
2018-02-25T04:06:03.120Z,11.35
2018-02-25T04:08:29.842Z,14.23
2018-02-25T04:10:56.528Z,15.32
2018-02-25T04:13:23.561Z,13.57
2018-02-25T04:15:50.254Z,14.45
2018-02-25T04:18:16.914Z,11.35
2018-02-25T04:20:43.840Z,12.68
2018-02-25T04:23:10.636Z,14.45
2018-02-25T04:25:37.392Z,13.13
2018-02-25T04:28:04.168Z,17.77
2018-02-25T04:30:31.315Z,13.77
2018-02-25T04:32:58.042Z,11.82
2018-02-25T04:35:24.790Z,23.80
2018-02-25T04:37:51.523Z,14.60
2018-02-25T04:40:18.254Z,13.60
2018-02-25T04:42:45.065Z,15.20
2018-02-25T04:45:12.038Z,14.55
2018-02-25T04:47:38.827Z,16.62
2018-02-25T04:50:05.613Z,15.15
2018-02-25T04:52:32.336Z,16.42
2018-02-25T04:54:59.007Z,14.85
2018-02-25T04:57:25.699Z,14.00
2018-02-25T04:59:52.406Z,17.00
2018-02-25T05:02:19.164Z,16.90
2018-02-25T05:04:45.872Z,19.67
2018-02-25T05:07:12.644Z,16.30
2018-02-25T05:09:39.412Z,18.95
2018-02-25T05:12:06.151Z,17.75
2018-02-25T05:14:32.943Z,16.60
2018-02-25T05:16:59.732Z,18.62
2018-02-25T05:19:26.461Z,20.17
2018-02-25T05:21:53.181Z,14.98
2018-02-25T05:24:19.961Z,14.57
2018-02-25T05:26:46.685Z,16.37
2018-02-25T05:29:13.367Z,17.23
2018-02-25T05:31:40.072Z,17.10
2018-02-25T05:34:06.864Z,18.58
2018-02-25T05:36:33.593Z,21.62
2018-02-25T05:39:00.291Z,17.67
2018-02-25T05:41:27.044Z,19.87
2018-02-25T05:43:53.805Z,18.35
2018-02-25T05:46:20.631Z,18.15
2018-02-25T05:48:47.333Z,15.77
2018-02-25T05:51:14.144Z,17.35
2018-02-25T05:53:42.671Z,24.80
2018-02-25T05:56:09.394Z,18.73
2018-02-25T05:58:36.086Z,19.15
2018-02-25T06:01:02.807Z,17.30
2018-02-25T06:03:29.536Z,16.55
2018-02-25T06:05:56.294Z,17.90
2018-02-25T06:08:23.051Z,15.10
2018-02-25T06:10:49.826Z,17.70
2018-02-25T06:13:16.591Z,20.37
2018-02-25T06:15:43.358Z,19.27
2018-02-25T06:18:10.161Z,25.67
2018-02-25T06:20:36.905Z,23.73
2018-02-25T06:23:03.927Z,21.67
2018-02-25T06:25:30.692Z,21.35
2018-02-25T06:27:57.436Z,22.05
2018-02-25T06:30:24.236Z,20.55
2018-02-25T06:32:50.948Z,18.70
2018-02-25T06:35:18.722Z,22.83
2018-02-25T06:37:45.842Z,21.73
2018-02-25T06:40:12.571Z,18.87
2018-02-25T06:42:39.388Z,20.17
2018-02-25T06:45:06.202Z,20.05
2018-02-25T06:47:32.944Z,19.15
2018-02-25T06:49:59.922Z,24.48
2018-02-25T06:52:27.525Z,18.55
2018-02-25T06:54:54.276Z,15.73
2018-02-25T06:57:21.065Z,22.40
2018-02-25T06:59:47.807Z,24.08
2018-02-25T07:02:14.505Z,21.83
2018-02-25T07:04:41.228Z,23.05
2018-02-25T07:07:07.936Z,20.58
2018-02-25T07:09:34.665Z,19.80
2018-02-25T07:12:01.483Z,16.65
2018-02-25T07:14:28.218Z,21.75
2018-02-25T07:16:54.993Z,19.08
2018-02-25T07:19:21.859Z,17.95
2018-02-25T07:21:48.657Z,19.87
2018-02-25T07:24:15.398Z,23.27
2018-02-25T07:26:42.127Z,26.70
2018-02-25T07:29:08.856Z,20.33
2018-02-25T07:31:35.578Z,23.87
2018-02-25T07:34:03.089Z,19.20
2018-02-25T07:36:30.060Z,20.55
2018-02-25T07:38:56.834Z,23.52
2018-02-25T07:41:23.561Z,17.62
2018-02-25T07:43:50.365Z,20.88
2018-02-25T07:46:17.233Z,22.02
2018-02-25T07:48:44.048Z,18.37
2018-02-25T07:51:10.817Z,19.02
2018-02-25T07:53:38.059Z,23.33
2018-02-25T07:56:04.788Z,23.83
2018-02-25T07:58:31.513Z,20.08
2018-02-25T08:00:58.237Z,21.77
2018-02-25T08:03:24.960Z,18.77
2018-02-25T08:05:51.665Z,20.90
2018-02-25T08:08:18.453Z,19.10
2018-02-25T08:10:45.232Z,21.60
2018-02-25T08:13:11.981Z,19.37
2018-02-25T08:15:38.740Z,19.70
2018-02-25T08:18:05.505Z,21.70
2018-02-25T08:20:32.234Z,20.20
2018-02-25T08:22:59.007Z,18.50
2018-02-25T08:25:25.802Z,17.90
2018-02-25T08:27:52.584Z,21.37
2018-02-25T08:30:19.385Z,19.73
2018-02-25T08:32:46.110Z,18.67
2018-02-25T08:35:12.999Z,16.37
2018-02-25T08:37:39.846Z,19.37
2018-02-25T08:40:06.614Z,20.17
2018-02-25T08:42:34.263Z,17.80
2018-02-25T08:45:01.126Z,19.63
2018-02-25T08:47:27.887Z,18.47
2018-02-25T08:49:54.573Z,19.30
2018-02-25T08:52:21.590Z,18.13
2018-02-25T08:54:48.303Z,17.53
2018-02-25T08:57:15.042Z,23.00
2018-02-25T08:59:41.759Z,19.80
2018-02-25T09:02:08.465Z,18.92
2018-02-25T09:04:35.234Z,17.73
2018-02-25T09:07:02.096Z,16.50
2018-02-25T09:09:28.917Z,16.70
2018-02-25T09:11:55.617Z,18.97
2018-02-25T09:14:22.331Z,16.43
2018-02-25T09:16:49.044Z,16.43
2018-02-25T09:19:15.807Z,20.20
2018-02-25T09:21:42.728Z,20.47
2018-02-25T09:24:09.513Z,18.43
2018-02-25T09:26:36.335Z,18.17
2018-02-25T09:29:03.201Z,20.57
2018-02-25T09:31:30.411Z,19.13
2018-02-25T09:33:57.558Z,18.20
2018-02-25T09:36:24.269Z,16.20
2018-02-25T09:38:51.020Z,15.77
2018-02-25T09:41:18.102Z,13.10
2018-02-25T09:43:44.902Z,17.40
2018-02-25T09:46:11.869Z,16.90
2018-02-25T09:48:38.757Z,13.60
2018-02-25T09:51:05.770Z,15.07
2018-02-25T09:53:32.452Z,22.20
2018-02-25T09:55:59.225Z,14.93
2018-02-25T09:58:27.037Z,16.17
2018-02-25T10:00:53.821Z,15.40
2018-02-25T10:03:20.614Z,18.00
2018-02-25T10:05:47.430Z,14.37
2018-02-25T10:08:14.122Z,17.10
2018-02-25T10:10:41.517Z,14.80
2018-02-25T10:13:08.543Z,13.93
2018-02-25T10:15:35.266Z,15.20
2018-02-25T10:18:02.313Z,14.63
2018-02-25T10:20:29.010Z,16.23
2018-02-25T10:22:55.727Z,17.00
2018-02-25T10:25:22.442Z,16.50
2018-02-25T10:27:49.376Z,14.27
2018-02-25T10:30:17.594Z,12.80
2018-02-25T10:32:44.544Z,15.33
2018-02-25T10:35:11.369Z,17.63
2018-02-25T10:37:38.074Z,18.03
2018-02-25T10:40:04.765Z,18.90
2018-02-25T10:42:31.501Z,16.60
2018-02-25T10:44:59.311Z,18.53
2018-02-25T10:47:26.184Z,17.70
2018-02-25T10:49:53.179Z,13.40
2018-02-25T10:52:20.481Z,12.07
2018-02-25T10:54:47.225Z,14.00
2018-02-25T10:57:14.004Z,15.00
2018-02-25T10:59:41.128Z,14.60
2018-02-25T11:02:08.014Z,14.10
2018-02-25T11:04:34.724Z,16.17
2018-02-25T11:07:05.228Z,15.57
2018-02-25T11:09:32.486Z,16.33
2018-02-25T11:11:59.453Z,14.60
2018-02-25T11:14:26.167Z,13.23
2018-02-25T11:16:52.954Z,13.90
2018-02-25T11:19:19.721Z,11.90
2018-02-25T11:21:46.433Z,15.10
2018-02-25T11:24:13.404Z,13.80
2018-02-25T11:26:40.976Z,13.60
2018-02-25T11:29:07.865Z,11.17
2018-02-25T11:31:34.624Z,14.70
2018-02-25T11:34:01.846Z,11.43
2018-02-25T11:36:29.247Z,11.33
2018-02-25T11:38:56.462Z,13.03
2018-02-25T11:41:23.206Z,10.43
2018-02-25T11:43:49.994Z,10.10
2018-02-25T11:46:16.888Z,12.20
2018-02-25T11:48:43.874Z,10.70
2018-02-25T11:51:10.561Z,11.00
2018-02-25T11:53:37.341Z,11.33
2018-02-25T11:56:04.094Z,12.27
2018-02-25T11:58:30.964Z,11.40
2018-02-25T12:00:57.741Z,10.00
2018-02-25T12:03:24.486Z,14.80
2018-02-25T12:05:52.484Z,11.33
2018-02-25T12:08:19.272Z,12.80
2018-02-25T12:10:45.973Z,12.17
2018-02-25T12:13:12.751Z,12.60
2018-02-25T12:15:39.460Z,12.90
2018-02-25T12:18:06.747Z,11.75
2018-02-25T12:20:33.746Z,10.60
2018-02-25T12:23:00.448Z,13.30
2018-02-25T12:25:27.173Z,9.70
2018-02-25T12:27:54.120Z,11.70
2018-02-25T12:30:21.028Z,11.68
2018-02-25T12:32:47.714Z,10.50
2018-02-25T12:35:14.549Z,11.10
2018-02-25T12:37:42.060Z,12.30
2018-02-25T12:40:12.707Z,9.83
2018-02-25T12:42:39.686Z,9.50
2018-02-25T12:45:06.518Z,10.18
2018-02-25T12:47:33.233Z,11.35
2018-02-25T12:50:00.145Z,11.63
2018-02-25T12:52:26.924Z,8.67
2018-02-25T12:54:53.650Z,8.40
2018-02-25T12:57:20.583Z,9.70
2018-02-25T12:59:48.409Z,8.77
2018-02-25T13:02:15.115Z,8.80
2018-02-25T13:04:41.816Z,9.70
2018-02-25T13:07:09.073Z,9.80
2018-02-25T13:09:36.037Z,11.30
2018-02-25T13:12:02.711Z,11.60
2018-02-25T13:14:29.977Z,14.73
2018-02-25T13:16:56.704Z,10.60
2018-02-25T13:19:23.412Z,13.20
2018-02-25T13:21:50.119Z,9.87
2018-02-25T13:24:17.145Z,10.00
2018-02-25T13:26:43.954Z,8.03
2018-02-25T13:29:10.745Z,10.17
2018-02-25T13:31:37.565Z,9.10
2018-02-25T13:34:04.428Z,7.10
2018-02-25T13:36:31.338Z,7.70
2018-02-25T13:38:58.217Z,9.90
2018-02-25T13:41:24.898Z,8.07
2018-02-25T13:43:51.686Z,11.60
2018-02-25T13:46:18.432Z,8.87
2018-02-25T13:48:45.262Z,8.17
2018-02-25T13:51:12.003Z,9.07
2018-02-25T13:53:38.695Z,8.33
2018-02-25T13:56:05.500Z,9.37
2018-02-25T13:58:32.483Z,10.17
2018-02-25T14:00:59.362Z,8.87
2018-02-25T14:03:26.193Z,8.10
2018-02-25T14:05:52.971Z,9.87
2018-02-25T14:08:19.660Z,9.63
2018-02-25T14:10:46.733Z,8.60
2018-02-25T14:13:13.475Z,9.03
2018-02-25T14:15:40.232Z,9.77
2018-02-25T14:18:07.285Z,10.30
2018-02-25T14:20:34.591Z,8.30
2018-02-25T14:23:01.849Z,10.70
2018-02-25T14:25:28.549Z,10.87
2018-02-25T14:27:55.285Z,11.90
2018-02-25T14:30:23.012Z,10.10
2018-02-25T14:32:49.803Z,10.67
2018-02-25T14:35:16.606Z,10.47
2018-02-25T14:37:43.486Z,10.30
2018-02-25T14:40:10.237Z,10.33
2018-02-25T14:42:36.965Z,10.83
2018-02-25T14:45:04.460Z,10.63
2018-02-25T14:47:32.054Z,8.23
2018-02-25T14:49:59.042Z,7.77
2018-02-25T14:52:25.777Z,10.20
2018-02-25T14:54:52.535Z,9.83
2018-02-25T14:57:19.553Z,9.27
2018-02-25T14:59:46.520Z,9.70
2018-02-25T15:02:13.781Z,16.87
2018-02-25T15:04:40.557Z,9.77
2018-02-25T15:07:07.279Z,9.53
2018-02-25T15:09:34.221Z,9.87
2018-02-25T15:12:00.972Z,8.33
2018-02-25T15:14:27.697Z,7.53
2018-02-25T15:16:54.490Z,9.23
2018-02-25T15:19:21.224Z,8.37
2018-02-25T15:21:48.002Z,9.30
2018-02-25T15:24:14.810Z,8.00
2018-02-25T15:26:41.657Z,8.20
2018-02-25T15:29:08.700Z,9.30
2018-02-25T15:31:35.898Z,8.57
2018-02-25T15:34:02.573Z,7.70
2018-02-25T15:36:29.277Z,7.40
2018-02-25T15:38:55.990Z,8.57
2018-02-25T15:41:23.067Z,9.77
2018-02-25T15:43:49.926Z,8.47
2018-02-25T15:46:16.653Z,9.33
2018-02-25T15:48:43.412Z,9.17
2018-02-25T15:51:10.664Z,8.17
2018-02-25T15:53:37.351Z,8.50
2018-02-25T15:56:04.062Z,9.37
2018-02-25T15:58:30.845Z,12.40
2018-02-25T16:00:57.702Z,11.13
2018-02-25T16:03:24.729Z,10.00
2018-02-25T16:05:51.431Z,8.87
2018-02-25T16:08:18.158Z,6.87
2018-02-25T16:10:45.000Z,8.80
2018-02-25T16:13:11.790Z,8.50
2018-02-25T16:15:38.505Z,8.43
2018-02-25T16:18:05.198Z,10.27
2018-02-25T16:20:31.891Z,8.83
2018-02-25T16:22:58.604Z,10.17
2018-02-25T16:25:25.316Z,7.22
2018-02-25T16:27:52.041Z,7.67
2018-02-25T16:30:18.793Z,7.75
2018-02-25T16:32:45.528Z,8.80
2018-02-25T16:35:12.336Z,9.83
2018-02-25T16:37:39.056Z,10.53
2018-02-25T16:40:05.849Z,8.87
2018-02-25T16:42:32.564Z,11.98
2018-02-25T16:44:59.301Z,11.90
2018-02-25T16:47:26.042Z,11.70
2018-02-25T16:49:52.800Z,8.80
2018-02-25T16:52:19.633Z,8.70
2018-02-25T16:54:46.371Z,10.00
2018-02-25T16:57:13.113Z,9.47
2018-02-25T16:59:39.852Z,9.35
2018-02-25T17:02:06.543Z,11.73
2018-02-25T17:04:33.426Z,7.93
2018-02-25T17:07:00.149Z,8.53
2018-02-25T17:09:26.862Z,10.17
2018-02-25T17:11:53.569Z,8.98
2018-02-25T17:14:20.278Z,7.07
2018-02-25T17:16:47.155Z,8.85
2018-02-25T17:19:13.861Z,9.20
2018-02-25T17:21:40.617Z,11.27
2018-02-25T17:24:07.379Z,9.50
2018-02-25T17:26:34.116Z,8.10
2018-02-25T17:29:00.874Z,6.80
2018-02-25T17:31:27.650Z,8.80
2018-02-25T17:33:54.472Z,8.02
2018-02-25T17:36:21.382Z,7.15
2018-02-25T17:38:48.093Z,7.73
2018-02-25T17:41:14.833Z,12.63
2018-02-25T17:43:41.569Z,10.73
2018-02-25T17:46:08.302Z,12.50
2018-02-25T17:48:35.014Z,11.82
2018-02-25T17:51:01.728Z,10.00
2018-02-25T17:53:28.445Z,9.40
2018-02-25T17:55:55.217Z,9.05
2018-02-25T17:58:21.884Z,11.63
2018-02-25T18:00:48.813Z,9.60
2018-02-25T18:03:15.810Z,8.80
2018-02-25T18:05:42.517Z,10.67
2018-02-25T18:08:09.334Z,8.23
2018-02-25T18:10:36.144Z,9.00
2018-02-25T18:13:03.089Z,9.07
2018-02-25T18:15:30.059Z,8.73
2018-02-25T18:17:56.939Z,9.13
2018-02-25T18:20:23.722Z,10.00
2018-02-25T18:22:50.410Z,8.45
2018-02-25T18:25:17.260Z,9.88
2018-02-25T18:27:43.981Z,7.70
2018-02-25T18:30:10.743Z,10.45
2018-02-25T18:32:37.615Z,8.65
2018-02-25T18:35:04.343Z,13.02
2018-02-25T18:37:31.143Z,9.80
2018-02-25T18:39:58.065Z,10.80
2018-02-25T18:42:24.793Z,9.68
2018-02-25T18:44:51.475Z,7.32
2018-02-25T18:47:18.305Z,13.13
2018-02-25T18:49:45.008Z,8.38
2018-02-25T18:52:11.762Z,7.65
2018-02-25T18:54:38.488Z,10.60
2018-02-25T18:57:05.182Z,11.35
2018-02-25T18:59:31.905Z,11.55
2018-02-25T19:01:58.605Z,8.50
2018-02-25T19:04:25.333Z,8.32
2018-02-25T19:06:52.075Z,9.30
2018-02-25T19:09:19.146Z,9.17
2018-02-25T19:11:45.951Z,9.88
2018-02-25T19:14:12.676Z,8.07
2018-02-25T19:16:39.469Z,7.60
2018-02-25T19:19:06.258Z,8.20
2018-02-25T19:21:32.976Z,9.77
2018-02-25T19:23:59.711Z,10.02
2018-02-25T19:26:26.417Z,8.57
2018-02-25T19:28:53.212Z,9.35
2018-02-25T19:31:19.950Z,7.72
2018-02-25T19:33:46.666Z,8.75
2018-02-25T19:36:19.004Z,8.25
2018-02-25T19:38:52.310Z,8.25
2018-02-25T19:41:24.728Z,9.48
2018-02-25T19:43:51.434Z,8.88
2018-02-25T19:46:18.349Z,8.75
2018-02-25T19:48:45.107Z,10.10
2018-02-25T19:51:12.004Z,8.45
2018-02-25T19:53:38.823Z,6.72
2018-02-25T19:56:05.768Z,7.55
2018-02-25T19:58:32.630Z,8.65
2018-02-25T20:00:59.415Z,9.52
2018-02-25T20:03:26.125Z,12.07
2018-02-25T20:05:52.842Z,10.65
2018-02-25T20:08:19.662Z,8.73
2018-02-25T20:10:46.462Z,9.50
2018-02-25T20:13:13.177Z,11.00
2018-02-25T20:15:39.923Z,11.30
2018-02-25T20:18:06.688Z,9.02
2018-02-25T20:20:33.462Z,10.60
2018-02-25T20:23:00.194Z,13.62
2018-02-25T20:25:27.173Z,13.40
2018-02-25T20:27:53.883Z,9.50
2018-02-25T20:30:20.600Z,12.10
2018-02-25T20:32:47.526Z,9.65
2018-02-25T20:35:14.286Z,9.02
2018-02-25T20:37:41.234Z,10.10
2018-02-25T20:40:08.397Z,10.90
2018-02-25T20:42:35.232Z,9.13
2018-02-25T20:45:02.091Z,10.82
2018-02-25T20:47:28.811Z,9.05
2018-02-25T20:49:56.422Z,8.00
2018-02-25T20:52:23.098Z,8.70
2018-02-25T20:54:49.937Z,9.55
2018-02-25T20:57:16.834Z,7.93
2018-02-25T20:59:43.967Z,10.80
2018-02-25T21:02:11.799Z,9.05
2018-02-25T21:04:38.893Z,9.65
2018-02-25T21:07:05.685Z,10.50
2018-02-25T21:09:32.383Z,9.70
2018-02-25T21:11:59.078Z,8.13
2018-02-25T21:14:25.805Z,10.25
2018-02-25T21:16:52.772Z,12.55
2018-02-25T21:19:19.596Z,10.93
2018-02-25T21:21:46.451Z,13.80
2018-02-25T21:24:14.404Z,8.98
2018-02-25T21:26:41.144Z,13.60
2018-02-25T21:29:09.517Z,8.57
2018-02-25T21:31:38.895Z,9.10
2018-02-25T21:34:05.908Z,10.75
2018-02-25T21:36:32.674Z,8.82
2018-02-25T21:38:59.371Z,13.55
2018-02-25T21:41:26.399Z,10.30
2018-02-25T21:43:53.242Z,10.05
2018-02-25T21:46:19.922Z,10.38
2018-02-25T21:48:47.062Z,9.52
2018-02-25T21:51:13.777Z,10.05
2018-02-25T21:53:41.426Z,9.25
2018-02-25T21:56:14.053Z,11.30
2018-02-25T21:58:46.570Z,8.98
2018-02-25T22:01:18.798Z,12.02
2018-02-25T22:03:45.550Z,8.55
2018-02-25T22:06:12.413Z,7.47
2018-02-25T22:08:39.282Z,8.32
2018-02-25T22:11:06.176Z,9.68
2018-02-25T22:13:32.932Z,9.45
2018-02-25T22:15:59.675Z,8.70
2018-02-25T22:18:26.389Z,9.65
2018-02-25T22:20:53.145Z,6.62
2018-02-25T22:23:19.967Z,9.23
2018-02-25T22:25:46.745Z,10.73
2018-02-25T22:28:13.450Z,9.43
2018-02-25T22:30:40.337Z,9.52
2018-02-25T22:33:07.967Z,8.55
2018-02-25T22:35:34.810Z,9.25
2018-02-25T22:38:01.780Z,7.28
2018-02-25T22:40:28.476Z,7.87
2018-02-25T22:42:55.798Z,7.78
2018-02-25T22:45:23.464Z,9.65
2018-02-25T22:47:50.253Z,6.65
2018-02-25T22:50:17.005Z,9.13
2018-02-25T22:52:43.750Z,9.25
2018-02-25T22:55:10.453Z,11.38
2018-02-25T22:57:37.241Z,8.95
2018-02-25T23:00:04.241Z,10.13
2018-02-25T23:02:31.329Z,7.60
2018-02-25T23:04:58.086Z,6.32
2018-02-25T23:07:24.918Z,11.05
2018-02-25T23:09:51.609Z,7.50
2018-02-25T23:12:18.542Z,7.18
2018-02-25T23:14:45.282Z,12.25
2018-02-25T23:17:12.164Z,11.30
2018-02-25T23:19:38.876Z,7.95
2018-02-25T23:22:05.980Z,7.43
2018-02-25T23:24:32.746Z,5.62
2018-02-25T23:27:02.771Z,8.43
2018-02-25T23:29:30.240Z,9.10
2018-02-25T23:31:56.945Z,7.05
2018-02-25T23:34:23.660Z,7.30
2018-02-25T23:36:50.387Z,8.85
2018-02-25T23:39:17.197Z,10.43
2018-02-25T23:41:44.168Z,9.50
2018-02-25T23:44:10.842Z,8.45
2018-02-25T23:46:37.562Z,6.70
2018-02-25T23:49:04.283Z,8.88
2018-02-25T23:51:30.960Z,8.70
2018-02-25T23:53:57.647Z,8.27
2018-02-25T23:56:24.384Z,7.62
2018-02-25T23:58:51.078Z,8.00
